Meteo Giornale » Osservazioni meteo Francia » Chambery-Aix-Les-Bains

ore: 13:00 - Osservazioni Meteo Chambery-Aix-Les-Bains
Lat. 45° 39' N Lon. 5° 53' E Alt. 235 metri s.l.m.

sereno Europe/Paris

25 °C

Sereno

Temp. 24 Ore

14 °C

28 °C

Nord

13 Km/h

Dew point 15 °C

Umidità 53 %

Visibilità  10 Km

Il sole sorge alle ore 05:44

Il sole tramonta alle ore 21:30

Data e Ora Cielo e Fenomeni T °C DP °C Um. % Pres. hPa Vis. km Vento km/h
Oggi h: 13:00 sereno Sereno 25 15 53 1012 10 N 13
Oggi h: 12:30 sereno Sereno 24 15 57 1013 10 N 11.1
Oggi h: 12:00 sereno Sereno 24 15 57 1013 10 N 11.1
Oggi h: 11:30 sereno Sereno 25 13 47 1013 10 N 3.7
Oggi h: 11:00 sereno Sereno 24 14 53 1013 10 N 5.5
Oggi h: 10:30 sereno Sereno 23 13 53 1014 10 N 5.5
Oggi h: 10:00 sereno Sereno 23 15 60 1014 10 S/SE 7.4
Oggi h: 09:30 sereno Sereno 21 16 73 1014 10 SE 11.1
Oggi h: 09:00 nuvoloso Nuvoloso 21 15 68 1015 10 N 5.5
Oggi h: 08:30 molto_nuvoloso Molto Nuvoloso 20 15 72 1015 10 N 5.5
Oggi h: 08:00 sereno Sereno 18 16 88 1015 10 N 5.5
Oggi h: 07:30 sereno Sereno 16 15 93 1014 10 N 5.5
Oggi h: 07:00 sereno Sereno 15 14 93 1013 10 N 3.7
Oggi h: 06:00 sereno Sereno 15 13 87 1013 10 N 0
Oggi h: 05:30 sereno Sereno 14 13 93 1013 10 N 0
Oggi h: 05:00 sereno Sereno 15 13 87 1013 10 N 5.5
Oggi h: 04:30 sereno Sereno 15 14 93 1013 10 N 0
Oggi h: 03:30 sereno Sereno 15 13 87 1013 10 N 3.7
Oggi h: 03:00 sereno Sereno 15 13 87 1013 10 S 9.3
Oggi h: 02:30 sereno Sereno 15 14 93 1013 10 N 3.7
Oggi h: 02:00 sereno Sereno 15 14 93 1013 10 N 3.7
Oggi h: 01:30 sereno Sereno 16 15 93 1014 10 N 0
Oggi h: 01:00 sereno Sereno 17 15 88 1014 10 N 3.7
Oggi h: 00:30 sereno Sereno 18 15 82 1014 10 N 3.7
Oggi h: 00:00 sereno Sereno 18 16 88 1014 10 N 1.8
Ieri h: 23:30 sereno Sereno 18 16 88 1014 10 N 5.5
Ieri h: 23:00 sereno Sereno 19 16 82 1014 10 N 0
Ieri h: 22:30 sereno Sereno 20 18 88 1014 10 N 3.7
Ieri h: 22:00 sereno Sereno 21 17 77 1013 10 N 3.7
Ieri h: 21:30 sereno Sereno 22 18 78 1013 10 N 3.7
Ieri h: 21:00 sereno Sereno 23 18 73 1013 10 N 3.7
Ieri h: 20:30 sereno Sereno 23 18 73 1013 10 N 5.5
Ieri h: 20:00 sereno Sereno 26 18 61 1013 10 N 3.7
Ieri h: 19:30 sereno Sereno 27 18 57 1013 10 N 5.5
Ieri h: 19:00 sereno Sereno 26 18 61 1013 10 N 5.5
Ieri h: 18:30 sereno Sereno 26 17 57 1013 10 N 5.5
Ieri h: 18:00 sereno Sereno 27 16 50 1013 10 N 3.7
Ieri h: 17:30 sereno Sereno 27 17 54 1013 10 N 3.7
Ieri h: 17:00 sereno Sereno 26 17 57 1013 10 N 3.7
Ieri h: 16:30 sereno Sereno 26 18 61 1013 10 N 9.3
Ieri h: 16:00 sereno Sereno 28 17 51 1013 10 N 7.4
Ieri h: 15:30 sereno Sereno 27 17 54 1014 10 N 11.1
Ieri h: 15:00 sereno Sereno 27 17 54 1014 10 N 11.1
Ieri h: 14:30 sereno Sereno 27 17 54 1014 10 N 9.3
Ieri h: 14:00 sereno Sereno 25 17 61 1015 10 N/NO 11.1